sensor_id;sensor_type;location;lat;lon;timestamp;pressure;altitude;pressure_sealevel;temperature;humidity
48216;BME280;34005;48.844;10.098;2023-06-04T00:02:22;96672.34;;;18.00;38.04
48216;BME280;34005;48.844;10.098;2023-06-04T00:04:50;96673.84;;;17.96;38.04
48216;BME280;34005;48.844;10.098;2023-06-04T00:07:18;96671.53;;;17.88;37.87
48216;BME280;34005;48.844;10.098;2023-06-04T00:09:46;96673.91;;;17.78;37.71
48216;BME280;34005;48.844;10.098;2023-06-04T00:12:14;96679.47;;;17.69;38.04
48216;BME280;34005;48.844;10.098;2023-06-04T00:14:43;96674.88;;;17.65;38.23
48216;BME280;34005;48.844;10.098;2023-06-04T00:17:10;96680.97;;;17.65;37.88
48216;BME280;34005;48.844;10.098;2023-06-04T00:19:39;96678.19;;;17.60;37.94
48216;BME280;34005;48.844;10.098;2023-06-04T00:22:07;96674.25;;;17.51;38.05
48216;BME280;34005;48.844;10.098;2023-06-04T00:24:37;96673.66;;;17.49;38.55
48216;BME280;34005;48.844;10.098;2023-06-04T00:27:06;96675.06;;;17.52;38.47
48216;BME280;34005;48.844;10.098;2023-06-04T00:29:34;96678.03;;;17.55;38.19
48216;BME280;34005;48.844;10.098;2023-06-04T00:32:03;96673.81;;;17.54;37.73
48216;BME280;34005;48.844;10.098;2023-06-04T00:34:31;96673.22;;;17.52;37.89
48216;BME280;34005;48.844;10.098;2023-06-04T00:36:58;96674.03;;;17.53;37.68
48216;BME280;34005;48.844;10.098;2023-06-04T00:39:27;96669.34;;;17.55;39.22
48216;BME280;34005;48.844;10.098;2023-06-04T00:41:55;96677.84;;;17.57;37.80
48216;BME280;34005;48.844;10.098;2023-06-04T00:44:23;96680.69;;;17.55;38.10
48216;BME280;34005;48.844;10.098;2023-06-04T00:46:51;96681.16;;;17.52;37.89
48216;BME280;34005;48.844;10.098;2023-06-04T00:49:21;96676.31;;;17.49;38.23
48216;BME280;34005;48.844;10.098;2023-06-04T00:51:49;96673.53;;;17.44;38.22
48216;BME280;34005;48.844;10.098;2023-06-04T00:54:19;96676.47;;;17.36;38.60
48216;BME280;34005;48.844;10.098;2023-06-04T00:56:47;96678.63;;;17.27;38.67
48216;BME280;34005;48.844;10.098;2023-06-04T00:59:15;96681.34;;;17.20;38.87
48216;BME280;34005;48.844;10.098;2023-06-04T01:01:49;96686.09;;;17.12;38.92
48216;BME280;34005;48.844;10.098;2023-06-04T01:04:25;96684.13;;;17.07;38.61
48216;BME280;34005;48.844;10.098;2023-06-04T01:06:56;96690.28;;;17.01;39.68
48216;BME280;34005;48.844;10.098;2023-06-04T01:09:26;96684.50;;;16.92;39.72
48216;BME280;34005;48.844;10.098;2023-06-04T01:11:54;96687.00;;;16.87;39.99
48216;BME280;34005;48.844;10.098;2023-06-04T01:14:24;96691.53;;;16.80;40.15
48216;BME280;34005;48.844;10.098;2023-06-04T01:16:55;96697.06;;;16.72;40.30
48216;BME280;34005;48.844;10.098;2023-06-04T01:19:57;96690.81;;;16.66;40.39
48216;BME280;34005;48.844;10.098;2023-06-04T01:22:33;96693.91;;;16.63;40.47
48216;BME280;34005;48.844;10.098;2023-06-04T01:25:04;96689.06;;;16.60;41.02
48216;BME280;34005;48.844;10.098;2023-06-04T01:27:33;96684.66;;;16.54;40.87
48216;BME280;34005;48.844;10.098;2023-06-04T01:30:02;96693.63;;;16.46;41.01
48216;BME280;34005;48.844;10.098;2023-06-04T01:32:30;96691.25;;;16.44;41.29
48216;BME280;34005;48.844;10.098;2023-06-04T01:34:59;96693.28;;;16.42;41.83
48216;BME280;34005;48.844;10.098;2023-06-04T01:37:27;96687.63;;;16.39;41.36
48216;BME280;34005;48.844;10.098;2023-06-04T01:39:55;96681.03;;;16.30;41.40
48216;BME280;34005;48.844;10.098;2023-06-04T01:42:22;96686.19;;;16.18;42.14
48216;BME280;34005;48.844;10.098;2023-06-04T01:44:50;96687.47;;;16.09;42.52
48216;BME280;34005;48.844;10.098;2023-06-04T01:47:17;96691.59;;;15.98;42.96
48216;BME280;34005;48.844;10.098;2023-06-04T01:49:45;96684.19;;;15.88;43.21
48216;BME280;34005;48.844;10.098;2023-06-04T01:52:15;96687.66;;;15.82;43.62
48216;BME280;34005;48.844;10.098;2023-06-04T01:54:43;96691.56;;;15.73;44.10
48216;BME280;34005;48.844;10.098;2023-06-04T01:57:12;96689.75;;;15.66;44.31
48216;BME280;34005;48.844;10.098;2023-06-04T01:59:39;96691.78;;;15.64;43.98
48216;BME280;34005;48.844;10.098;2023-06-04T02:02:08;96690.19;;;15.63;43.96
48216;BME280;34005;48.844;10.098;2023-06-04T02:04:36;96691.00;;;15.64;44.20
48216;BME280;34005;48.844;10.098;2023-06-04T02:07:04;96693.22;;;15.60;44.34
48216;BME280;34005;48.844;10.098;2023-06-04T02:09:34;96688.59;;;15.56;43.98
48216;BME280;34005;48.844;10.098;2023-06-04T02:12:02;96695.50;;;15.50;43.59
48216;BME280;34005;48.844;10.098;2023-06-04T02:14:30;96696.97;;;15.46;43.38
48216;BME280;34005;48.844;10.098;2023-06-04T02:16:58;96698.78;;;15.39;43.13
48216;BME280;34005;48.844;10.098;2023-06-04T02:19:27;96694.78;;;15.30;43.25
48216;BME280;34005;48.844;10.098;2023-06-04T02:21:55;96696.81;;;15.28;43.45
48216;BME280;34005;48.844;10.098;2023-06-04T02:24:23;96698.84;;;15.25;43.46
48216;BME280;34005;48.844;10.098;2023-06-04T02:26:51;96702.50;;;15.24;43.46
48216;BME280;34005;48.844;10.098;2023-06-04T02:29:20;96697.66;;;15.21;43.42
48216;BME280;34005;48.844;10.098;2023-06-04T02:31:47;96698.69;;;15.20;43.49
48216;BME280;34005;48.844;10.098;2023-06-04T02:34:15;96698.44;;;15.29;44.02
48216;BME280;34005;48.844;10.098;2023-06-04T02:36:43;96701.66;;;15.37;43.12
48216;BME280;34005;48.844;10.098;2023-06-04T02:39:18;96700.00;;;15.43;43.83
48216;BME280;34005;48.844;10.098;2023-06-04T02:41:46;96694.69;;;15.50;43.52
48216;BME280;34005;48.844;10.098;2023-06-04T02:44:15;96697.56;;;15.48;42.90
48216;BME280;34005;48.844;10.098;2023-06-04T02:46:43;96703.66;;;15.42;43.23
48216;BME280;34005;48.844;10.098;2023-06-04T02:49:11;96697.59;;;15.41;43.14
48216;BME280;34005;48.844;10.098;2023-06-04T02:51:40;96696.75;;;15.41;43.20
48216;BME280;34005;48.844;10.098;2023-06-04T02:54:08;96694.75;;;15.36;43.69
48216;BME280;34005;48.844;10.098;2023-06-04T02:56:36;96703.72;;;15.29;44.40
48216;BME280;34005;48.844;10.098;2023-06-04T02:59:04;96705.16;;;15.18;44.84
48216;BME280;34005;48.844;10.098;2023-06-04T03:01:33;96702.34;;;15.06;45.05
48216;BME280;34005;48.844;10.098;2023-06-04T03:04:01;96702.59;;;14.98;45.49
48216;BME280;34005;48.844;10.098;2023-06-04T03:06:31;96705.84;;;14.87;45.64
48216;BME280;34005;48.844;10.098;2023-06-04T03:08:59;96707.09;;;14.77;46.04
48216;BME280;34005;48.844;10.098;2023-06-04T03:11:27;96707.28;;;14.69;46.27
48216;BME280;34005;48.844;10.098;2023-06-04T03:13:55;96709.13;;;14.62;46.29
48216;BME280;34005;48.844;10.098;2023-06-04T03:16:23;96706.69;;;14.54;46.49
48216;BME280;34005;48.844;10.098;2023-06-04T03:18:52;96711.94;;;14.47;46.81
48216;BME280;34005;48.844;10.098;2023-06-04T03:21:19;96711.16;;;14.40;47.19
48216;BME280;34005;48.844;10.098;2023-06-04T03:23:47;96705.72;;;14.35;47.43
48216;BME280;34005;48.844;10.098;2023-06-04T03:26:14;96708.94;;;14.30;47.60
48216;BME280;34005;48.844;10.098;2023-06-04T03:28:42;96718.41;;;14.25;47.78
48216;BME280;34005;48.844;10.098;2023-06-04T03:31:10;96713.97;;;14.18;47.93
48216;BME280;34005;48.844;10.098;2023-06-04T03:33:37;96719.63;;;14.15;48.02
48216;BME280;34005;48.844;10.098;2023-06-04T03:36:06;96718.22;;;14.13;48.28
48216;BME280;34005;48.844;10.098;2023-06-04T03:38:34;96723.66;;;14.11;48.50
48216;BME280;34005;48.844;10.098;2023-06-04T03:41:01;96715.19;;;14.09;48.69
48216;BME280;34005;48.844;10.098;2023-06-04T03:43:29;96727.31;;;14.10;48.93
48216;BME280;34005;48.844;10.098;2023-06-04T03:45:56;96725.69;;;14.09;48.55
48216;BME280;34005;48.844;10.098;2023-06-04T03:48:24;96726.47;;;14.10;48.12
48216;BME280;34005;48.844;10.098;2023-06-04T03:50:52;96728.91;;;14.11;48.35
48216;BME280;34005;48.844;10.098;2023-06-04T03:53:21;96724.47;;;14.12;48.27
48216;BME280;34005;48.844;10.098;2023-06-04T03:55:48;96730.50;;;14.12;48.73
48216;BME280;34005;48.844;10.098;2023-06-04T03:58:16;96731.13;;;14.14;48.66
48216;BME280;34005;48.844;10.098;2023-06-04T04:00:44;96730.50;;;14.12;48.75
48216;BME280;34005;48.844;10.098;2023-06-04T04:03:11;96733.56;;;14.16;48.92
48216;BME280;34005;48.844;10.098;2023-06-04T04:05:39;96731.72;;;14.16;48.70
48216;BME280;34005;48.844;10.098;2023-06-04T04:08:07;96737.41;;;14.20;49.03
48216;BME280;34005;48.844;10.098;2023-06-04T04:10:36;96739.81;;;14.21;48.93
48216;BME280;34005;48.844;10.098;2023-06-04T04:13:04;96747.47;;;14.16;49.03
48216;BME280;34005;48.844;10.098;2023-06-04T04:15:31;96740.22;;;14.12;49.29
48216;BME280;34005;48.844;10.098;2023-06-04T04:17:59;96741.84;;;14.06;49.15
48216;BME280;34005;48.844;10.098;2023-06-04T04:20:27;96736.97;;;14.03;49.31
48216;BME280;34005;48.844;10.098;2023-06-04T04:22:55;96738.19;;;14.00;49.34
48216;BME280;34005;48.844;10.098;2023-06-04T04:25:23;96742.81;;;13.98;49.67
48216;BME280;34005;48.844;10.098;2023-06-04T04:27:51;96735.38;;;14.02;49.67
48216;BME280;34005;48.844;10.098;2023-06-04T04:30:22;96745.44;;;14.05;49.49
48216;BME280;34005;48.844;10.098;2023-06-04T04:32:50;96750.31;;;14.08;49.46
48216;BME280;34005;48.844;10.098;2023-06-04T04:35:18;96746.25;;;14.12;48.66
48216;BME280;34005;48.844;10.098;2023-06-04T04:37:46;96753.94;;;14.14;49.17
48216;BME280;34005;48.844;10.098;2023-06-04T04:40:14;96756.56;;;14.14;49.65
48216;BME280;34005;48.844;10.098;2023-06-04T04:42:42;96760.81;;;14.15;49.55
48216;BME280;34005;48.844;10.098;2023-06-04T04:45:11;96760.41;;;14.18;49.09
48216;BME280;34005;48.844;10.098;2023-06-04T04:47:38;96753.94;;;14.27;49.61
48216;BME280;34005;48.844;10.098;2023-06-04T04:50:07;96752.16;;;14.41;48.24
48216;BME280;34005;48.844;10.098;2023-06-04T04:52:34;96753.94;;;14.54;48.77
48216;BME280;34005;48.844;10.098;2023-06-04T04:55:02;96761.25;;;14.65;47.87
48216;BME280;34005;48.844;10.098;2023-06-04T04:57:30;96756.78;;;14.72;47.54
48216;BME280;34005;48.844;10.098;2023-06-04T04:59:57;96761.41;;;14.83;47.28
48216;BME280;34005;48.844;10.098;2023-06-04T05:02:26;96759.59;;;14.91;47.27
48216;BME280;34005;48.844;10.098;2023-06-04T05:04:54;96762.19;;;14.97;47.31
48216;BME280;34005;48.844;10.098;2023-06-04T05:07:21;96766.66;;;14.97;46.70
48216;BME280;34005;48.844;10.098;2023-06-04T05:09:51;96768.50;;;14.90;46.62
48216;BME280;34005;48.844;10.098;2023-06-04T05:12:18;96767.28;;;14.86;46.77
48216;BME280;34005;48.844;10.098;2023-06-04T05:14:46;96773.16;;;14.81;46.70
48216;BME280;34005;48.844;10.098;2023-06-04T05:17:14;96769.72;;;14.80;47.13
48216;BME280;34005;48.844;10.098;2023-06-04T05:19:44;96767.50;;;14.77;47.15
48216;BME280;34005;48.844;10.098;2023-06-04T05:22:13;96771.75;;;14.78;47.11
48216;BME280;34005;48.844;10.098;2023-06-04T05:24:42;96780.22;;;14.80;47.01
48216;BME280;34005;48.844;10.098;2023-06-04T05:27:10;96783.03;;;14.86;47.06
48216;BME280;34005;48.844;10.098;2023-06-04T05:29:37;96781.44;;;14.91;46.68
48216;BME280;34005;48.844;10.098;2023-06-04T05:32:05;96783.44;;;14.96;46.84
48216;BME280;34005;48.844;10.098;2023-06-04T05:34:33;96783.44;;;14.96;46.58
48216;BME280;34005;48.844;10.098;2023-06-04T05:37:04;96786.44;;;14.99;46.89
48216;BME280;34005;48.844;10.098;2023-06-04T05:39:37;96785.00;;;15.10;47.52
48216;BME280;34005;48.844;10.098;2023-06-04T05:42:05;96795.31;;;15.18;46.52
48216;BME280;34005;48.844;10.098;2023-06-04T05:44:33;96798.34;;;15.22;46.34
48216;BME280;34005;48.844;10.098;2023-06-04T05:47:01;96797.09;;;15.31;46.18
48216;BME280;34005;48.844;10.098;2023-06-04T05:49:28;96797.06;;;15.38;45.79
48216;BME280;34005;48.844;10.098;2023-06-04T05:51:56;96799.06;;;15.42;45.75
48216;BME280;34005;48.844;10.098;2023-06-04T05:54:26;96795.81;;;15.47;45.57
48216;BME280;34005;48.844;10.098;2023-06-04T05:56:54;96795.78;;;15.54;45.62
48216;BME280;34005;48.844;10.098;2023-06-04T05:59:21;96795.78;;;15.60;45.72
48216;BME280;34005;48.844;10.098;2023-06-04T06:01:49;96807.06;;;15.68;45.63
48216;BME280;34005;48.844;10.098;2023-06-04T06:04:17;96800.81;;;15.75;46.25
48216;BME280;34005;48.844;10.098;2023-06-04T06:06:45;96804.00;;;15.84;46.12
48216;BME280;34005;48.844;10.098;2023-06-04T06:09:13;96807.63;;;15.90;45.70
48216;BME280;34005;48.844;10.098;2023-06-04T06:11:42;96807.78;;;15.95;45.70
48216;BME280;34005;48.844;10.098;2023-06-04T06:14:10;96809.78;;;15.99;45.28
48216;BME280;34005;48.844;10.098;2023-06-04T06:16:38;96807.31;;;16.04;45.24
48216;BME280;34005;48.844;10.098;2023-06-04T06:19:06;96809.13;;;16.11;44.85
48216;BME280;34005;48.844;10.098;2023-06-04T06:21:34;96818.38;;;16.20;44.60
48216;BME280;34005;48.844;10.098;2023-06-04T06:24:02;96815.28;;;16.30;43.98
48216;BME280;34005;48.844;10.098;2023-06-04T06:26:30;96817.44;;;16.39;43.15
48216;BME280;34005;48.844;10.098;2023-06-04T06:28:59;96819.63;;;16.49;43.20
48216;BME280;34005;48.844;10.098;2023-06-04T06:31:27;96824.38;;;16.59;42.58
48216;BME280;34005;48.844;10.098;2023-06-04T06:33:55;96817.63;;;16.69;42.29
48216;BME280;34005;48.844;10.098;2023-06-04T06:36:22;96823.44;;;16.78;42.36
48216;BME280;34005;48.844;10.098;2023-06-04T06:38:50;96818.53;;;16.88;42.50
48216;BME280;34005;48.844;10.098;2023-06-04T06:41:18;96822.47;;;16.98;42.19
48216;BME280;34005;48.844;10.098;2023-06-04T06:43:46;96817.16;;;17.04;41.77
48216;BME280;34005;48.844;10.098;2023-06-04T06:46:15;96817.88;;;17.12;41.85
48216;BME280;34005;48.844;10.098;2023-06-04T06:48:42;96826.31;;;17.20;42.03
48216;BME280;34005;48.844;10.098;2023-06-04T06:51:12;96825.81;;;17.30;41.47
48216;BME280;34005;48.844;10.098;2023-06-04T06:53:39;96825.31;;;17.40;41.18
48216;BME280;34005;48.844;10.098;2023-06-04T06:56:07;96818.50;;;17.50;41.24
48216;BME280;34005;48.844;10.098;2023-06-04T06:58:34;96823.03;;;17.62;41.07
48216;BME280;34005;48.844;10.098;2023-06-04T07:01:02;96823.53;;;17.70;40.72
48216;BME280;34005;48.844;10.098;2023-06-04T07:03:31;96824.84;;;17.80;40.59
48216;BME280;34005;48.844;10.098;2023-06-04T07:05:59;96826.41;;;17.87;40.60
48216;BME280;34005;48.844;10.098;2023-06-04T07:08:27;96828.50;;;17.97;41.12
48216;BME280;34005;48.844;10.098;2023-06-04T07:10:55;96826.16;;;18.07;40.54
48216;BME280;34005;48.844;10.098;2023-06-04T07:13:23;96831.94;;;18.16;40.26
48216;BME280;34005;48.844;10.098;2023-06-04T07:15:50;96821.50;;;18.21;40.15
48216;BME280;34005;48.844;10.098;2023-06-04T07:18:18;96818.31;;;18.31;40.30
48216;BME280;34005;48.844;10.098;2023-06-04T07:20:47;96826.03;;;18.44;40.26
48216;BME280;34005;48.844;10.098;2023-06-04T07:23:15;96825.47;;;18.54;39.69
48216;BME280;34005;48.844;10.098;2023-06-04T07:25:43;96819.06;;;18.62;39.41
48216;BME280;34005;48.844;10.098;2023-06-04T07:28:11;96820.13;;;18.72;39.50
48216;BME280;34005;48.844;10.098;2023-06-04T07:30:38;96826.28;;;18.85;39.16
48216;BME280;34005;48.844;10.098;2023-06-04T07:33:06;96828.56;;;18.93;38.77
48216;BME280;34005;48.844;10.098;2023-06-04T07:35:33;96814.22;;;19.01;38.73
48216;BME280;34005;48.844;10.098;2023-06-04T07:38:02;96818.34;;;19.08;38.35
48216;BME280;34005;48.844;10.098;2023-06-04T07:40:30;96822.47;;;19.16;38.43
48216;BME280;34005;48.844;10.098;2023-06-04T07:42:58;96821.09;;;19.25;38.37
48216;BME280;34005;48.844;10.098;2023-06-04T07:45:25;96820.53;;;19.35;38.33
48216;BME280;34005;48.844;10.098;2023-06-04T07:47:56;96819.91;;;19.45;38.54
48216;BME280;34005;48.844;10.098;2023-06-04T07:50:24;96825.44;;;19.55;38.11
48216;BME280;34005;48.844;10.098;2023-06-04T07:52:51;96827.69;;;19.63;38.12
48216;BME280;34005;48.844;10.098;2023-06-04T07:55:20;96826.34;;;19.72;37.74
48216;BME280;34005;48.844;10.098;2023-06-04T07:57:48;96824.94;;;19.82;37.66
48216;BME280;34005;48.844;10.098;2023-06-04T08:00:16;96827.22;;;19.90;37.15
48216;BME280;34005;48.844;10.098;2023-06-04T08:02:44;96825.22;;;19.97;37.71
48216;BME280;34005;48.844;10.098;2023-06-04T08:05:12;96830.47;;;20.09;38.08
48216;BME280;34005;48.844;10.098;2023-06-04T08:07:41;96829.84;;;20.19;36.93
48216;BME280;34005;48.844;10.098;2023-06-04T08:10:09;96819.13;;;20.25;36.82
48216;BME280;34005;48.844;10.098;2023-06-04T08:12:38;96818.03;;;20.38;36.98
48216;BME280;34005;48.844;10.098;2023-06-04T08:15:07;96819.31;;;20.52;36.32
48216;BME280;34005;48.844;10.098;2023-06-04T08:17:35;96815.81;;;20.64;36.37
48216;BME280;34005;48.844;10.098;2023-06-04T08:20:03;96811.00;;;20.77;36.00
48216;BME280;34005;48.844;10.098;2023-06-04T08:22:32;96805.38;;;20.91;34.79
48216;BME280;34005;48.844;10.098;2023-06-04T08:25:00;96812.66;;;21.01;34.05
48216;BME280;34005;48.844;10.098;2023-06-04T08:27:27;96806.88;;;21.04;33.64
48216;BME280;34005;48.844;10.098;2023-06-04T08:29:57;96810.97;;;21.11;34.10
48216;BME280;34005;48.844;10.098;2023-06-04T08:32:24;96806.59;;;21.22;34.33
48216;BME280;34005;48.844;10.098;2023-06-04T08:34:52;96800.16;;;21.35;34.39
48216;BME280;34005;48.844;10.098;2023-06-04T08:37:20;96805.91;;;21.49;34.23
48216;BME280;34005;48.844;10.098;2023-06-04T08:39:47;96815.06;;;21.58;33.84
48216;BME280;34005;48.844;10.098;2023-06-04T08:42:18;96806.66;;;21.66;33.75
48216;BME280;34005;48.844;10.098;2023-06-04T08:44:50;96814.19;;;21.74;34.08
48216;BME280;34005;48.844;10.098;2023-06-04T08:47:22;96812.72;;;21.84;33.66
48216;BME280;34005;48.844;10.098;2023-06-04T08:49:52;96825.56;;;21.92;32.60
48216;BME280;34005;48.844;10.098;2023-06-04T08:52:20;96818.47;;;21.97;32.53
48216;BME280;34005;48.844;10.098;2023-06-04T08:54:49;96818.25;;;22.04;32.71
48216;BME280;34005;48.844;10.098;2023-06-04T08:57:18;96817.31;;;22.15;33.04
48216;BME280;34005;48.844;10.098;2023-06-04T08:59:46;96820.06;;;22.26;32.51
48216;BME280;34005;48.844;10.098;2023-06-04T09:02:14;96813.28;;;22.35;32.52
48216;BME280;34005;48.844;10.098;2023-06-04T09:04:43;96820.78;;;22.43;32.82
48216;BME280;34005;48.844;10.098;2023-06-04T09:07:12;96819.78;;;22.49;32.52
48216;BME280;34005;48.844;10.098;2023-06-04T09:09:42;96817.66;;;22.51;31.66
48216;BME280;34005;48.844;10.098;2023-06-04T09:12:19;96822.50;;;22.54;32.23
48216;BME280;34005;48.844;10.098;2023-06-04T09:14:48;96814.56;;;22.59;32.45
48216;BME280;34005;48.844;10.098;2023-06-04T09:17:21;96831.88;;;22.67;32.24
48216;BME280;34005;48.844;10.098;2023-06-04T09:19:50;96819.69;;;22.71;32.16
48216;BME280;34005;48.844;10.098;2023-06-04T09:22:18;96814.69;;;22.75;32.04
48216;BME280;34005;48.844;10.098;2023-06-04T09:24:47;96820.81;;;22.80;31.75
48216;BME280;34005;48.844;10.098;2023-06-04T09:27:17;96821.91;;;22.84;32.16
48216;BME280;34005;48.844;10.098;2023-06-04T09:29:52;96825.94;;;22.87;31.50
48216;BME280;34005;48.844;10.098;2023-06-04T09:32:21;96822.22;;;22.88;31.34
48216;BME280;34005;48.844;10.098;2023-06-04T09:34:50;96818.28;;;22.96;31.85
48216;BME280;34005;48.844;10.098;2023-06-04T09:37:19;96814.38;;;23.03;32.02
48216;BME280;34005;48.844;10.098;2023-06-04T09:39:55;96829.31;;;23.10;31.55
48216;BME280;34005;48.844;10.098;2023-06-04T09:42:23;96826.69;;;23.15;31.30
48216;BME280;34005;48.844;10.098;2023-06-04T09:44:51;96822.94;;;23.11;31.21
48216;BME280;34005;48.844;10.098;2023-06-04T09:47:19;96822.59;;;23.02;31.38
48216;BME280;34005;48.844;10.098;2023-06-04T09:49:48;96821.84;;;23.07;31.54
48216;BME280;34005;48.844;10.098;2023-06-04T09:52:18;96822.94;;;23.11;31.80
48216;BME280;34005;48.844;10.098;2023-06-04T09:54:47;96813.38;;;23.15;31.25
48216;BME280;34005;48.844;10.098;2023-06-04T09:57:16;96812.34;;;23.21;31.29
48216;BME280;34005;48.844;10.098;2023-06-04T09:59:45;96809.16;;;23.24;31.19
48216;BME280;34005;48.844;10.098;2023-06-04T10:02:13;96807.34;;;23.30;31.54
48216;BME280;34005;48.844;10.098;2023-06-04T10:04:41;96811.91;;;23.34;30.81
48216;BME280;34005;48.844;10.098;2023-06-04T10:07:12;96811.66;;;23.36;31.25
48216;BME280;34005;48.844;10.098;2023-06-04T10:09:43;96805.53;;;23.40;30.69
48216;BME280;34005;48.844;10.098;2023-06-04T10:12:14;96806.09;;;23.42;30.64
48216;BME280;34005;48.844;10.098;2023-06-04T10:14:47;96806.88;;;23.43;30.77
48216;BME280;34005;48.844;10.098;2023-06-04T10:17:22;96804.53;;;23.52;31.12
48216;BME280;34005;48.844;10.098;2023-06-04T10:19:52;96793.94;;;23.62;30.31
48216;BME280;34005;48.844;10.098;2023-06-04T10:22:20;96802.47;;;23.64;30.32
48216;BME280;34005;48.844;10.098;2023-06-04T10:24:50;96813.38;;;23.68;30.16
48216;BME280;34005;48.844;10.098;2023-06-04T10:27:19;96809.94;;;23.72;30.00
48216;BME280;34005;48.844;10.098;2023-06-04T10:29:47;96800.38;;;23.76;29.95
48216;BME280;34005;48.844;10.098;2023-06-04T10:32:15;96798.00;;;23.80;30.11
48216;BME280;34005;48.844;10.098;2023-06-04T10:34:42;96802.03;;;23.88;30.37
48216;BME280;34005;48.844;10.098;2023-06-04T10:37:18;96804.19;;;23.96;30.06
48216;BME280;34005;48.844;10.098;2023-06-04T10:39:51;96802.59;;;24.05;29.81
48216;BME280;34005;48.844;10.098;2023-06-04T10:42:20;96800.47;;;24.07;29.36
48216;BME280;34005;48.844;10.098;2023-06-04T10:44:49;96805.81;;;24.07;29.77
48216;BME280;34005;48.844;10.098;2023-06-04T10:47:19;96804.75;;;24.13;29.93
48216;BME280;34005;48.844;10.098;2023-06-04T10:49:47;96797.84;;;24.17;29.64
48216;BME280;34005;48.844;10.098;2023-06-04T10:52:15;96800.50;;;24.22;29.89
48216;BME280;34005;48.844;10.098;2023-06-04T10:54:44;96803.69;;;24.24;29.16
48216;BME280;34005;48.844;10.098;2023-06-04T10:57:14;96803.16;;;24.22;29.71
48216;BME280;34005;48.844;10.098;2023-06-04T10:59:42;96801.03;;;24.24;29.13
48216;BME280;34005;48.844;10.098;2023-06-04T11:02:20;96805.84;;;24.27;29.11
48216;BME280;34005;48.844;10.098;2023-06-04T11:04:59;96813.84;;;24.33;28.96
48216;BME280;34005;48.844;10.098;2023-06-04T11:07:29;96811.72;;;24.35;28.69
48216;BME280;34005;48.844;10.098;2023-06-04T11:09:56;96806.41;;;24.35;28.21
48216;BME280;34005;48.844;10.098;2023-06-04T11:12:26;96799.75;;;24.42;28.73
48216;BME280;34005;48.844;10.098;2023-06-04T11:14:54;96795.50;;;24.52;28.31
48216;BME280;34005;48.844;10.098;2023-06-04T11:17:22;96789.91;;;24.58;28.22
48216;BME280;34005;48.844;10.098;2023-06-04T11:19:50;96795.78;;;24.65;29.32
48216;BME280;34005;48.844;10.098;2023-06-04T11:22:22;96793.63;;;24.73;28.73
48216;BME280;34005;48.844;10.098;2023-06-04T11:24:49;96793.09;;;24.81;28.46
48216;BME280;34005;48.844;10.098;2023-06-04T11:27:23;96796.84;;;24.80;28.00
48216;BME280;34005;48.844;10.098;2023-06-04T11:30:06;96801.34;;;24.79;28.59
48216;BME280;34005;48.844;10.098;2023-06-04T11:32:34;96792.03;;;24.87;28.11
48216;BME280;34005;48.844;10.098;2023-06-04T11:35:02;96793.63;;;24.88;27.73
48216;BME280;34005;48.844;10.098;2023-06-04T11:37:31;96793.06;;;24.86;27.93
48216;BME280;34005;48.844;10.098;2023-06-04T11:39:59;96784.03;;;24.87;26.98
48216;BME280;34005;48.844;10.098;2023-06-04T11:42:28;96792.03;;;24.87;27.37
48216;BME280;34005;48.844;10.098;2023-06-04T11:44:57;96789.09;;;24.88;27.76
48216;BME280;34005;48.844;10.098;2023-06-04T11:47:26;96789.34;;;24.87;26.77
48216;BME280;34005;48.844;10.098;2023-06-04T11:49:54;96787.25;;;24.84;27.50
48216;BME280;34005;48.844;10.098;2023-06-04T11:52:23;96788.81;;;24.85;27.64
48216;BME280;34005;48.844;10.098;2023-06-04T11:54:51;96786.13;;;24.90;27.37
48216;BME280;34005;48.844;10.098;2023-06-04T11:57:19;96783.22;;;24.92;26.89
48216;BME280;34005;48.844;10.098;2023-06-04T11:59:47;96792.81;;;24.87;27.25
48216;BME280;34005;48.844;10.098;2023-06-04T12:02:14;96775.47;;;24.90;27.37
48216;BME280;34005;48.844;10.098;2023-06-04T12:04:43;96780.28;;;24.93;27.75
48216;BME280;34005;48.844;10.098;2023-06-04T12:07:19;96782.38;;;25.01;27.16
48216;BME280;34005;48.844;10.098;2023-06-04T12:09:50;96775.97;;;25.07;26.67
48216;BME280;34005;48.844;10.098;2023-06-04T12:12:21;96780.78;;;25.11;26.46
48216;BME280;34005;48.844;10.098;2023-06-04T12:14:56;96783.44;;;25.16;26.43
48216;BME280;34005;48.844;10.098;2023-06-04T12:17:24;96763.97;;;25.20;26.55
48216;BME280;34005;48.844;10.098;2023-06-04T12:19:53;96767.16;;;25.22;26.00
48216;BME280;34005;48.844;10.098;2023-06-04T12:22:22;96775.97;;;25.23;26.00
48216;BME280;34005;48.844;10.098;2023-06-04T12:24:51;96767.41;;;25.16;25.68
48216;BME280;34005;48.844;10.098;2023-06-04T12:27:20;96781.56;;;25.11;25.04
48216;BME280;34005;48.844;10.098;2023-06-04T12:29:57;96774.38;;;25.06;25.07
48216;BME280;34005;48.844;10.098;2023-06-04T12:32:24;96776.53;;;25.04;25.97
48216;BME280;34005;48.844;10.098;2023-06-04T12:34:54;96773.84;;;25.04;25.32
48216;BME280;34005;48.844;10.098;2023-06-04T12:37:22;96774.94;;;24.98;25.35
48216;BME280;34005;48.844;10.098;2023-06-04T12:39:52;96772.81;;;24.95;25.05
48216;BME280;34005;48.844;10.098;2023-06-04T12:42:20;96765.84;;;24.94;25.08
48216;BME280;34005;48.844;10.098;2023-06-04T12:44:48;96762.66;;;24.97;24.34
48216;BME280;34005;48.844;10.098;2023-06-04T12:47:15;96771.72;;;25.01;25.45
48216;BME280;34005;48.844;10.098;2023-06-04T12:49:44;96759.72;;;25.04;25.92
48216;BME280;34005;48.844;10.098;2023-06-04T12:52:13;96759.72;;;25.04;26.25
48216;BME280;34005;48.844;10.098;2023-06-04T12:54:42;96761.56;;;25.08;26.78
48216;BME280;34005;48.844;10.098;2023-06-04T12:57:09;96754.63;;;25.13;27.14
48216;BME280;34005;48.844;10.098;2023-06-04T12:59:37;96753.53;;;25.14;26.52